createdAt,value
2023-05-04T00:00:40.282Z,98138.34
2023-05-04T00:03:08.600Z,98101.41
2023-05-04T00:05:36.792Z,98138.56
2023-05-04T00:08:06.844Z,98125.69
2023-05-04T00:10:35.179Z,98134.31
2023-05-04T00:13:03.400Z,98123.91
2023-05-04T00:15:31.585Z,98127.44
2023-05-04T00:17:59.845Z,98133.56
2023-05-04T00:20:28.102Z,98131.78
2023-05-04T00:22:56.500Z,98127.38
2023-05-04T00:25:26.127Z,98116.19
2023-05-04T00:27:54.249Z,98130.78
2023-05-04T00:30:22.375Z,98126.44
2023-05-04T00:32:50.539Z,98122.72
2023-05-04T00:35:18.827Z,98117.09
2023-05-04T00:37:46.960Z,98125.81
2023-05-04T00:40:15.185Z,98106.09
2023-05-04T00:42:44.800Z,98103.53
2023-05-04T00:45:13.047Z,98129.41
2023-05-04T00:47:41.819Z,98126.94
2023-05-04T00:50:11.404Z,98132.91
2023-05-04T00:52:41.429Z,98136.50
2023-05-04T00:55:11.071Z,98133.81
2023-05-04T00:57:39.848Z,98122.66
2023-05-04T01:00:13.404Z,98084.91
2023-05-04T01:02:43.662Z,98113.41
2023-05-04T01:05:13.572Z,98096.09
2023-05-04T01:07:53.602Z,98125.50
2023-05-04T01:10:26.871Z,98115.94
2023-05-04T01:13:02.158Z,98125.56
2023-05-04T01:15:33.047Z,98119.47
2023-05-04T01:18:01.318Z,98116.25
2023-05-04T01:20:29.714Z,98122.00
2023-05-04T01:22:59.872Z,98117.13
2023-05-04T01:25:33.765Z,98126.75
2023-05-04T01:28:08.945Z,98123.38
2023-05-04T01:30:40.468Z,98131.22
2023-05-04T01:33:09.192Z,98121.69
2023-05-04T01:35:37.703Z,98134.63
2023-05-04T01:38:07.507Z,98133.84
2023-05-04T01:40:35.765Z,98131.28
2023-05-04T01:43:03.980Z,98076.09
2023-05-04T01:45:32.253Z,98124.38
2023-05-04T01:48:00.466Z,98105.28
2023-05-04T01:50:28.809Z,98118.38
2023-05-04T01:52:57.024Z,98135.75
2023-05-04T01:55:26.596Z,98116.16
2023-05-04T01:57:54.808Z,98125.72
2023-05-04T02:00:23.183Z,98111.94
2023-05-04T02:02:51.346Z,98121.34
2023-05-04T02:05:19.668Z,98125.91
2023-05-04T02:07:47.841Z,98114.56
2023-05-04T02:10:16.218Z,98109.44
2023-05-04T02:12:46.440Z,98025.78
2023-05-04T02:15:14.999Z,98104.69
2023-05-04T02:17:43.235Z,98118.50
2023-05-04T02:20:13.137Z,98122.84
2023-05-04T02:22:41.647Z,98124.72
2023-05-04T02:25:10.550Z,98123.94
2023-05-04T02:27:38.727Z,98126.53
2023-05-04T02:30:09.786Z,98111.88
2023-05-04T02:32:38.028Z,98130.25
2023-05-04T02:35:06.771Z,98119.09
2023-05-04T02:37:35.304Z,98130.28
2023-05-04T02:40:04.374Z,98129.50
2023-05-04T02:42:33.384Z,98130.41
2023-05-04T02:45:01.541Z,98136.44
2023-05-04T02:47:31.166Z,98114.78
2023-05-04T02:49:59.410Z,98137.38
2023-05-04T02:52:27.554Z,98119.16
2023-05-04T02:54:55.748Z,98115.88
2023-05-04T02:57:23.892Z,98138.56
2023-05-04T02:59:52.406Z,98135.22
2023-05-04T03:02:20.901Z,98142.13
2023-05-04T03:04:50.956Z,98137.91
2023-05-04T03:07:19.226Z,98140.59
2023-05-04T03:10:02.816Z,98142.13
2023-05-04T03:12:31.126Z,98141.38
2023-05-04T03:14:59.338Z,98129.31
2023-05-04T03:17:27.678Z,98125.22
2023-05-04T03:19:57.297Z,98040.53
2023-05-04T03:22:25.447Z,98133.88
2023-05-04T03:24:53.613Z,98139.22
2023-05-04T03:27:21.701Z,98132.31
2023-05-04T03:29:49.884Z,98124.50
2023-05-04T03:32:18.040Z,98120.22
2023-05-04T03:34:47.013Z,98137.53
2023-05-04T03:37:16.627Z,98120.09
2023-05-04T03:39:44.786Z,98134.88
2023-05-04T03:42:13.258Z,98135.97
2023-05-04T03:44:41.411Z,98123.03
2023-05-04T03:47:09.538Z,98141.25
2023-05-04T03:49:37.692Z,98136.06
2023-05-04T03:52:05.886Z,98145.72
2023-05-04T03:54:35.522Z,98139.47
2023-05-04T03:57:04.561Z,98154.31
2023-05-04T03:59:32.737Z,98128.25
2023-05-04T04:02:01.700Z,98147.50
2023-05-04T04:04:30.088Z,98152.63
2023-05-04T04:06:58.371Z,98147.25
2023-05-04T04:09:26.487Z,98145.41
2023-05-04T04:11:56.101Z,98141.16
2023-05-04T04:14:24.635Z,98146.50
2023-05-04T04:16:52.827Z,98141.13
2023-05-04T04:19:21.016Z,98125.38
2023-05-04T04:21:49.288Z,98138.09
2023-05-04T04:24:17.484Z,98139.88
2023-05-04T04:26:45.646Z,98145.78
2023-05-04T04:29:15.286Z,98148.22
2023-05-04T04:31:43.529Z,98141.06
2023-05-04T04:34:11.901Z,98146.13
2023-05-04T04:36:40.439Z,98142.50
2023-05-04T04:39:08.672Z,98156.81
2023-05-04T04:41:36.838Z,98150.72
2023-05-04T04:44:05.071Z,98144.41
2023-05-04T04:46:34.956Z,98156.47
2023-05-04T04:49:03.273Z,98141.97
2023-05-04T04:51:31.413Z,98141.03
2023-05-04T04:53:59.562Z,98149.97
2023-05-04T04:56:28.185Z,98154.41
2023-05-04T04:58:56.371Z,98156.34
2023-05-04T05:01:25.067Z,98153.72
2023-05-04T05:03:54.681Z,98159.81
2023-05-04T05:06:23.910Z,98164.22
2023-05-04T05:08:52.924Z,98123.34
2023-05-04T05:11:21.101Z,98150.72
2023-05-04T05:13:49.282Z,98162.53
2023-05-04T05:16:17.671Z,98157.91
2023-05-04T05:18:46.074Z,98148.22
2023-05-04T05:21:15.789Z,98145.47
2023-05-04T05:23:43.943Z,98170.47
2023-05-04T05:26:12.246Z,98160.63
2023-05-04T05:28:40.561Z,98151.16
2023-05-04T05:31:08.911Z,98137.84
2023-05-04T05:33:37.106Z,98155.66
2023-05-04T05:36:06.212Z,98162.34
2023-05-04T05:38:35.806Z,98165.72
2023-05-04T05:41:04.239Z,98154.81
2023-05-04T05:43:33.636Z,98134.72
2023-05-04T05:46:02.019Z,98156.88
2023-05-04T05:48:30.283Z,98144.66
2023-05-04T05:50:58.482Z,98155.63
2023-05-04T05:53:26.944Z,98162.44
2023-05-04T05:55:56.749Z,98155.03
2023-05-04T05:58:25.033Z,98097.22
2023-05-04T06:00:53.173Z,98149.84
2023-05-04T06:03:21.590Z,98139.75
2023-05-04T06:05:50.551Z,98134.91
2023-05-04T06:08:18.848Z,98083.75
2023-05-04T06:10:48.292Z,98134.09
2023-05-04T06:13:17.997Z,98145.31
2023-05-04T06:15:52.765Z,98135.53
2023-05-04T06:18:21.684Z,98145.97
2023-05-04T06:20:49.926Z,98124.13
2023-05-04T06:23:18.102Z,98135.72
2023-05-04T06:25:46.270Z,98107.09
2023-05-04T06:28:14.884Z,98128.09
2023-05-04T06:30:45.082Z,98135.50
2023-05-04T06:33:13.280Z,98143.19
2023-05-04T06:35:41.408Z,98144.28
2023-05-04T06:38:09.692Z,98119.75
2023-05-04T06:40:37.861Z,98142.84
2023-05-04T06:43:06.767Z,98137.19
2023-05-04T06:45:36.353Z,98149.06
2023-05-04T06:48:06.398Z,98145.97
2023-05-04T06:50:35.998Z,98143.69
2023-05-04T06:53:05.636Z,98138.19
2023-05-04T06:55:34.273Z,98007.94
2023-05-04T06:58:02.756Z,98138.44
2023-05-04T07:00:31.869Z,98140.56
2023-05-04T07:03:00.086Z,98136.59
2023-05-04T07:05:30.525Z,98093.50
2023-05-04T07:08:00.888Z,98136.97
2023-05-04T07:10:32.780Z,98133.03
2023-05-04T07:13:01.145Z,98127.91
2023-05-04T07:15:29.521Z,98138.47
2023-05-04T07:17:58.066Z,98072.88
2023-05-04T07:20:26.631Z,98091.81
2023-05-04T07:22:57.273Z,98141.47
2023-05-04T07:25:25.606Z,98036.38
2023-05-04T07:27:54.512Z,98085.31
2023-05-04T07:30:23.262Z,98102.06
2023-05-04T07:32:52.022Z,98130.25
2023-05-04T07:35:20.814Z,98126.22
2023-05-04T07:37:49.808Z,98130.34
2023-05-04T07:40:20.414Z,98104.88
2023-05-04T07:42:48.698Z,98119.44
2023-05-04T07:45:17.746Z,98123.88
2023-05-04T07:47:46.179Z,98117.34
2023-05-04T07:50:14.963Z,98097.19
2023-05-04T07:52:45.754Z,98109.56
2023-05-04T07:55:14.731Z,98039.88
2023-05-04T07:57:44.314Z,98099.47
2023-05-04T08:00:13.474Z,98102.03
2023-05-04T08:02:41.953Z,98083.97
2023-05-04T08:05:12.962Z,98097.88
2023-05-04T08:07:41.410Z,98097.66
2023-05-04T08:10:10.418Z,98100.41
2023-05-04T08:12:38.871Z,98099.75
2023-05-04T08:15:09.715Z,98096.47
2023-05-04T08:17:39.532Z,98096.91
2023-05-04T08:20:09.642Z,98101.75
2023-05-04T08:22:38.808Z,98097.94
2023-05-04T08:25:08.299Z,98098.31
2023-05-04T08:27:37.151Z,98099.50
2023-05-04T08:30:06.561Z,98087.78
2023-05-04T08:32:36.854Z,98095.72
2023-05-04T08:35:05.598Z,98090.44
2023-05-04T08:37:34.265Z,98095.41
2023-05-04T08:40:02.534Z,98082.94
2023-05-04T08:42:32.057Z,98100.34
2023-05-04T08:45:01.078Z,98093.94
2023-05-04T08:47:30.495Z,98003.97
2023-05-04T08:50:00.133Z,98094.72
2023-05-04T08:52:29.630Z,98095.28
2023-05-04T08:54:59.012Z,98102.38
2023-05-04T08:57:28.003Z,98100.50
2023-05-04T08:59:57.729Z,98065.47
2023-05-04T09:02:27.572Z,98085.91
2023-05-04T09:04:55.835Z,98091.66
2023-05-04T09:07:25.645Z,98095.09
2023-05-04T09:09:54.086Z,98105.25
2023-05-04T09:12:22.477Z,98093.38
2023-05-04T09:14:50.827Z,98062.69
2023-05-04T09:17:25.956Z,98083.56
2023-05-04T09:20:01.857Z,98089.97
2023-05-04T09:22:32.344Z,98079.00
2023-05-04T09:25:09.534Z,98023.97
2023-05-04T09:27:37.972Z,98076.75
2023-05-04T09:30:07.434Z,98082.00
2023-05-04T09:32:46.005Z,98071.19
2023-05-04T09:35:29.290Z,98080.56
2023-05-04T09:38:02.791Z,98077.75
2023-05-04T09:40:36.531Z,98076.44
2023-05-04T09:43:06.853Z,98069.44
2023-05-04T09:45:41.698Z,98070.28
2023-05-04T09:48:20.806Z,97984.19
2023-05-04T09:50:52.455Z,98045.78
2023-05-04T09:53:25.398Z,98030.09
2023-05-04T09:56:06.452Z,97998.00
2023-05-04T09:58:36.002Z,98062.00
2023-05-04T10:01:05.091Z,98063.34
2023-05-04T10:03:34.261Z,98055.66
2023-05-04T10:06:05.891Z,98017.34
2023-05-04T10:08:35.779Z,98043.84
2023-05-04T10:11:04.159Z,98045.72
2023-05-04T10:13:32.611Z,97978.38
2023-05-04T10:16:19.509Z,98014.63
2023-05-04T10:19:03.991Z,98010.69
2023-05-04T10:21:42.558Z,98018.72
2023-05-04T10:24:41.479Z,98033.03
2023-05-04T10:27:13.842Z,98000.22
2023-05-04T10:29:43.521Z,98026.97
2023-05-04T10:32:22.384Z,98010.41
2023-05-04T10:34:51.302Z,98019.25
2023-05-04T10:37:22.077Z,98023.13
2023-05-04T10:39:55.601Z,98006.56
2023-05-04T10:42:24.133Z,97922.03
2023-05-04T10:44:55.310Z,98007.41
2023-05-04T10:47:33.830Z,98010.75
2023-05-04T10:50:04.719Z,97993.34
2023-05-04T10:52:33.884Z,98009.88
2023-05-04T10:55:05.581Z,98014.94
2023-05-04T10:57:34.062Z,97985.72
2023-05-04T11:00:02.286Z,98005.66
2023-05-04T11:02:32.542Z,97895.97
2023-05-04T11:05:04.578Z,98003.50
2023-05-04T11:07:37.934Z,97999.09
2023-05-04T11:10:10.643Z,97958.63
2023-05-04T11:12:39.613Z,98005.22
2023-05-04T11:15:10.487Z,97924.84
2023-05-04T11:17:46.944Z,97993.06
2023-05-04T11:20:22.016Z,97993.06
2023-05-04T11:22:50.733Z,97988.31
2023-05-04T11:25:28.253Z,97972.63
2023-05-04T11:27:56.866Z,97985.69
2023-05-04T11:30:32.758Z,97977.13
2023-05-04T11:33:01.630Z,97984.56
2023-05-04T11:35:30.179Z,97980.09
2023-05-04T11:37:58.668Z,97977.03
2023-05-04T11:40:28.927Z,97975.88
2023-05-04T11:42:59.070Z,97965.53
2023-05-04T11:45:30.264Z,97971.16
2023-05-04T11:47:59.154Z,97907.75
2023-05-04T11:50:29.148Z,97962.16
2023-05-04T11:53:06.488Z,97960.66
2023-05-04T11:55:37.650Z,97961.41
2023-05-04T11:58:07.927Z,97958.91
2023-05-04T12:00:39.542Z,97958.22
2023-05-04T12:03:09.373Z,97948.47
2023-05-04T12:05:38.134Z,97960.06
2023-05-04T12:08:08.984Z,97792.88
2023-05-04T12:10:38.877Z,97941.19
2023-05-04T12:13:17.340Z,97948.09
2023-05-04T12:15:45.879Z,97946.34
2023-05-04T12:18:29.623Z,97899.69
2023-05-04T12:20:58.086Z,97878.84
2023-05-04T12:23:26.616Z,97883.44
2023-05-04T12:25:58.357Z,97936.00
2023-05-04T12:28:27.829Z,97939.25
2023-05-04T12:30:56.200Z,97937.19
2023-05-04T12:33:24.805Z,97938.69
2023-05-04T12:35:53.674Z,97917.53
2023-05-04T12:38:22.019Z,97935.50
2023-05-04T12:40:50.209Z,97934.88
2023-05-04T12:43:23.155Z,97929.50
2023-05-04T12:45:51.944Z,97917.44
2023-05-04T12:48:21.763Z,97907.50
2023-05-04T12:50:50.852Z,97898.41
2023-05-04T12:53:21.896Z,97831.91
2023-05-04T12:55:50.144Z,97910.94
2023-05-04T12:58:19.790Z,97910.47
2023-05-04T13:00:48.013Z,97908.22
2023-05-04T13:03:17.885Z,97868.13
2023-05-04T13:05:47.559Z,97809.84
2023-05-04T13:08:15.821Z,97820.78
2023-05-04T13:10:46.283Z,97885.38
2023-05-04T13:13:16.269Z,97888.63
2023-05-04T13:15:46.116Z,97843.06
2023-05-04T13:18:14.406Z,97873.03
2023-05-04T13:20:42.767Z,97857.94
2023-05-04T13:23:11.243Z,97868.56
2023-05-04T13:25:39.457Z,97826.19
2023-05-04T13:28:07.656Z,97863.47
2023-05-04T13:30:35.811Z,97868.47
2023-05-04T13:33:16.824Z,97833.88
2023-05-04T13:35:54.183Z,97845.53
2023-05-04T13:38:22.410Z,97792.03
2023-05-04T13:40:50.680Z,97854.94
2023-05-04T13:43:18.872Z,97831.94
2023-05-04T13:45:47.186Z,97831.31
2023-05-04T13:48:16.862Z,97848.25
2023-05-04T13:50:45.082Z,97837.75
2023-05-04T13:53:13.512Z,97835.31
2023-05-04T13:55:41.914Z,97810.19
2023-05-04T13:58:10.214Z,97828.25
2023-05-04T14:00:38.433Z,97801.72
2023-05-04T14:03:06.704Z,97828.09
2023-05-04T14:05:36.813Z,97773.38
2023-05-04T14:08:05.274Z,97827.50
2023-05-04T14:10:34.515Z,97820.69
2023-05-04T14:13:03.761Z,97835.28
2023-05-04T14:15:33.289Z,97794.31
2023-05-04T14:18:01.821Z,97797.31
2023-05-04T14:20:30.152Z,97800.72
2023-05-04T14:22:59.836Z,97799.56
2023-05-04T14:25:28.122Z,97804.53
2023-05-04T14:27:56.398Z,97796.13
2023-05-04T14:30:24.925Z,97771.84
2023-05-04T14:32:55.552Z,97807.16
2023-05-04T14:35:24.060Z,97802.41
2023-05-04T14:37:52.321Z,97800.44
2023-05-04T14:40:22.062Z,97815.13
2023-05-04T14:42:50.312Z,97799.69
2023-05-04T14:45:18.763Z,97807.81
2023-05-04T14:47:47.478Z,97776.09
2023-05-04T14:50:15.819Z,97705.84
2023-05-04T14:52:44.217Z,97795.63
2023-05-04T14:55:12.502Z,97805.25
2023-05-04T14:57:42.146Z,97795.59
2023-05-04T15:00:11.762Z,97798.13
2023-05-04T15:02:40.216Z,97788.78
2023-05-04T15:05:10.427Z,97798.75
2023-05-04T15:07:38.586Z,97792.72
2023-05-04T15:10:08.646Z,97788.69
2023-05-04T15:12:37.767Z,97792.34
2023-05-04T15:15:08.949Z,97784.53
2023-05-04T15:17:37.221Z,97794.19
2023-05-04T15:20:06.450Z,97766.13
2023-05-04T15:22:34.962Z,97789.44
2023-05-04T15:25:03.694Z,97741.75
2023-05-04T15:27:31.929Z,97783.13
2023-05-04T15:30:00.215Z,97780.34
2023-05-04T15:32:30.075Z,97752.66
2023-05-04T15:35:05.490Z,97772.22
2023-05-04T15:37:34.608Z,97774.63
2023-05-04T15:40:03.385Z,97761.69
2023-05-04T15:42:31.787Z,97774.63
2023-05-04T15:44:59.987Z,97767.88
2023-05-04T15:47:29.661Z,97763.00
2023-05-04T15:49:57.891Z,97777.03
2023-05-04T15:52:26.076Z,97740.53
2023-05-04T15:54:54.375Z,97753.84
2023-05-04T15:57:22.532Z,97737.84
2023-05-04T15:59:50.683Z,97746.56
2023-05-04T16:02:19.005Z,97735.66
2023-05-04T16:04:48.733Z,97744.25
2023-05-04T16:07:17.045Z,97734.53
2023-05-04T16:09:45.266Z,97741.47
2023-05-04T16:12:13.416Z,97738.59
2023-05-04T16:14:41.881Z,97741.94
2023-05-04T16:17:10.071Z,97741.38
2023-05-04T16:19:38.311Z,97725.75
2023-05-04T16:22:07.958Z,97735.41
2023-05-04T16:24:36.289Z,97730.66
2023-05-04T16:27:04.676Z,97714.13
2023-05-04T16:29:32.933Z,97739.19
2023-05-04T16:32:01.407Z,97739.97
2023-05-04T16:34:29.652Z,97721.47
2023-05-04T16:36:57.851Z,97744.09
2023-05-04T16:39:31.674Z,97732.66
2023-05-04T16:42:00.108Z,97668.47
2023-05-04T16:44:28.309Z,97750.00
2023-05-04T16:46:56.453Z,97748.00
2023-05-04T16:49:24.644Z,97749.16
2023-05-04T16:51:55.346Z,97757.94
2023-05-04T16:54:24.325Z,97746.00
2023-05-04T16:56:53.901Z,97767.28
2023-05-04T16:59:22.176Z,97756.00
2023-05-04T17:01:50.429Z,97739.41
2023-05-04T17:04:18.679Z,97776.53
2023-05-04T17:06:46.911Z,97773.19
2023-05-04T17:09:15.158Z,97756.59
2023-05-04T17:11:43.496Z,97756.34
2023-05-04T17:14:13.133Z,97754.59
2023-05-04T17:16:41.371Z,97777.34
2023-05-04T17:19:11.014Z,97768.78
2023-05-04T17:21:39.673Z,97714.59
2023-05-04T17:24:07.989Z,97775.53
2023-05-04T17:26:36.355Z,97773.28
2023-05-04T17:29:04.698Z,97790.00
2023-05-04T17:31:34.339Z,97795.03
2023-05-04T17:34:02.710Z,97800.59
2023-05-04T17:36:31.607Z,97796.63
2023-05-04T17:38:59.959Z,97774.84
2023-05-04T17:41:28.178Z,97806.91
2023-05-04T17:43:56.929Z,97806.31
2023-05-04T17:46:26.071Z,97803.53
2023-05-04T17:48:56.654Z,97791.56
2023-05-04T17:51:24.998Z,97814.44
2023-05-04T17:53:53.271Z,97818.34
2023-05-04T17:56:22.032Z,97806.91
2023-05-04T17:58:50.250Z,97819.94
2023-05-04T18:01:18.542Z,97827.00
2023-05-04T18:03:47.195Z,97824.53
2023-05-04T18:06:17.010Z,97831.91
2023-05-04T18:08:45.175Z,97823.78
2023-05-04T18:11:13.767Z,97831.81
2023-05-04T18:13:41.909Z,97819.41
2023-05-04T18:16:10.093Z,97759.25
2023-05-04T18:18:38.382Z,97847.59
2023-05-04T18:21:06.900Z,97846.47
2023-05-04T18:23:36.590Z,97854.94
2023-05-04T18:26:04.862Z,97845.59
2023-05-04T18:28:33.455Z,97848.97
2023-05-04T18:31:01.989Z,97867.25
2023-05-04T18:33:31.529Z,97855.31
2023-05-04T18:35:59.817Z,97867.53
2023-05-04T18:38:28.644Z,97866.22
2023-05-04T18:40:58.347Z,97882.88
2023-05-04T18:43:26.655Z,97886.19
2023-05-04T18:45:54.976Z,97898.66
2023-05-04T18:48:23.463Z,97897.91
2023-05-04T18:50:54.202Z,97796.34
2023-05-04T18:53:22.474Z,97897.09
2023-05-04T18:56:02.775Z,97901.19
2023-05-04T18:58:31.244Z,97899.06
2023-05-04T19:00:59.609Z,97889.84
2023-05-04T19:03:28.447Z,97909.06
2023-05-04T19:05:57.196Z,97916.63
2023-05-04T19:08:25.389Z,97906.16
2023-05-04T19:10:53.578Z,97849.91
2023-05-04T19:13:23.234Z,97915.66
2023-05-04T19:15:51.625Z,97874.19
2023-05-04T19:18:19.976Z,97928.44
2023-05-04T19:20:48.523Z,97917.47
2023-05-04T19:23:17.119Z,97940.47
2023-05-04T19:25:46.231Z,97920.22
2023-05-04T19:28:14.675Z,97940.94
2023-05-04T19:30:44.619Z,97926.50
2023-05-04T19:33:12.855Z,97942.63
2023-05-04T19:35:41.175Z,97933.44
2023-05-04T19:38:09.324Z,97943.22
2023-05-04T19:40:37.558Z,97922.03
2023-05-04T19:43:05.835Z,97944.63
2023-05-04T19:45:34.066Z,97940.19
2023-05-04T19:48:04.956Z,97935.78
2023-05-04T19:50:33.617Z,97936.66
2023-05-04T19:53:01.822Z,97936.16
2023-05-04T19:55:30.076Z,97929.88
2023-05-04T19:57:58.246Z,97927.41
2023-05-04T20:00:26.955Z,97951.34
2023-05-04T20:02:55.470Z,97942.88
2023-05-04T20:05:25.149Z,97954.59
2023-05-04T20:07:53.496Z,97954.72
2023-05-04T20:10:21.823Z,97959.69
2023-05-04T20:12:51.394Z,97946.03
2023-05-04T20:15:19.902Z,97957.34
2023-05-04T20:17:48.335Z,97955.72
2023-05-04T20:20:20.258Z,97958.97
2023-05-04T20:22:52.475Z,97966.84
2023-05-04T20:25:21.085Z,97937.81
2023-05-04T20:27:52.212Z,97887.63
2023-05-04T20:30:20.466Z,97972.84
2023-05-04T20:32:49.610Z,97979.00
2023-05-04T20:35:18.044Z,97978.16
2023-05-04T20:37:46.188Z,97968.28
2023-05-04T20:40:17.414Z,97977.16
2023-05-04T20:42:45.597Z,97984.28
2023-05-04T20:45:14.137Z,97962.81
2023-05-04T20:47:42.844Z,97984.50
2023-05-04T20:50:12.069Z,97984.41
2023-05-04T20:52:40.420Z,97972.69
2023-05-04T20:55:09.349Z,97985.22
2023-05-04T20:57:39.049Z,97966.09
2023-05-04T21:00:09.469Z,97964.44
2023-05-04T21:02:37.889Z,97953.75
2023-05-04T21:05:07.070Z,97973.38
2023-05-04T21:07:35.294Z,97938.59
2023-05-04T21:10:03.922Z,97954.91
2023-05-04T21:12:32.178Z,97957.69
2023-05-04T21:15:01.835Z,97971.63
2023-05-04T21:17:30.080Z,97939.59
2023-05-04T21:19:58.322Z,97966.72
2023-05-04T21:22:26.557Z,97849.13
2023-05-04T21:24:54.747Z,97966.31
2023-05-04T21:27:23.014Z,97961.25
2023-05-04T21:29:51.236Z,97915.56
2023-05-04T21:32:21.055Z,97962.47
2023-05-04T21:34:53.116Z,97956.75
2023-05-04T21:37:21.418Z,97928.97
2023-05-04T21:39:55.078Z,97960.56
2023-05-04T21:42:23.649Z,97955.38
2023-05-04T21:44:55.451Z,97961.34
2023-05-04T21:47:25.443Z,97945.97
2023-05-04T21:49:54.057Z,97931.31
2023-05-04T21:52:22.424Z,97842.41
2023-05-04T21:54:50.653Z,97970.09
2023-05-04T21:57:19.367Z,97910.75
2023-05-04T21:59:49.840Z,97967.59
2023-05-04T22:02:18.242Z,97954.84
2023-05-04T22:04:47.884Z,97962.41
2023-05-04T22:07:16.107Z,97963.41
2023-05-04T22:09:44.677Z,97965.19
2023-05-04T22:12:13.045Z,97955.78
2023-05-04T22:14:42.466Z,97970.00
2023-05-04T22:17:10.802Z,97965.72
2023-05-04T22:19:39.059Z,97963.94
2023-05-04T22:22:08.660Z,97946.97
2023-05-04T22:24:36.963Z,97935.72
2023-05-04T22:27:05.160Z,97912.28
2023-05-04T22:29:35.435Z,97832.66
2023-05-04T22:32:03.644Z,97959.31
2023-05-04T22:34:31.833Z,97944.72
2023-05-04T22:36:59.994Z,97965.38
2023-05-04T22:39:29.590Z,97960.00
2023-05-04T22:41:57.998Z,97950.78
2023-05-04T22:44:26.539Z,97933.91
2023-05-04T22:46:54.778Z,97957.63
2023-05-04T22:49:23.109Z,97941.56
2023-05-04T22:51:51.327Z,97956.03
2023-05-04T22:54:19.520Z,97905.31
2023-05-04T22:56:49.094Z,97952.00
2023-05-04T22:59:17.666Z,97958.84
2023-05-04T23:01:46.775Z,97740.06
2023-05-04T23:04:15.658Z,97950.69
2023-05-04T23:06:43.909Z,97964.72
2023-05-04T23:09:12.752Z,97957.81
2023-05-04T23:11:41.991Z,97954.16
2023-05-04T23:14:13.197Z,97932.25
2023-05-04T23:16:41.507Z,97913.31
2023-05-04T23:19:09.869Z,97929.63
2023-05-04T23:21:39.760Z,97949.75
2023-05-04T23:24:08.269Z,97950.66
2023-05-04T23:26:36.399Z,97954.03
2023-05-04T23:29:04.697Z,97938.25
2023-05-04T23:31:34.352Z,97943.34
2023-05-04T23:34:02.521Z,97927.91
2023-05-04T23:36:30.628Z,97942.53
2023-05-04T23:38:59.006Z,97940.88
2023-05-04T23:41:27.412Z,97935.75
2023-05-04T23:43:55.569Z,97944.66
2023-05-04T23:46:23.753Z,97928.72
2023-05-04T23:48:53.376Z,97942.81
2023-05-04T23:51:21.539Z,97936.16
2023-05-04T23:53:49.709Z,97763.22
2023-05-04T23:56:18.041Z,97917.34
2023-05-04T23:58:46.292Z,97941.75
